createdAt,value
2023-01-29T00:00:17.223Z,5.07
2023-01-29T00:07:19.143Z,5.04
2023-01-29T00:14:20.876Z,5.08
2023-01-29T00:21:22.640Z,5.11
2023-01-29T00:28:24.311Z,5.07
2023-01-29T00:35:25.898Z,5.06
2023-01-29T00:42:45.977Z,4.94
2023-01-29T00:49:47.592Z,5.04
2023-01-29T00:56:49.250Z,5.01
2023-01-29T01:03:52.150Z,4.96
2023-01-29T01:11:05.017Z,5.06
2023-01-29T01:18:07.191Z,5.14
2023-01-29T01:25:09.210Z,4.94
2023-01-29T01:32:10.784Z,4.93
2023-01-29T01:39:12.551Z,5.17
2023-01-29T01:46:14.194Z,5.13
2023-01-29T01:53:22.940Z,5.20
2023-01-29T02:00:24.674Z,5.17
2023-01-29T02:07:44.894Z,5.15
2023-01-29T02:14:46.693Z,5.27
2023-01-29T02:21:53.929Z,5.35
2023-01-29T02:29:22.582Z,5.22
2023-01-29T02:36:33.933Z,5.33
2023-01-29T02:43:51.923Z,5.03
2023-01-29T02:51:00.526Z,5.25
2023-01-29T02:58:07.745Z,5.07
2023-01-29T03:05:18.741Z,5.30
2023-01-29T03:12:33.699Z,5.20
2023-01-29T03:19:39.886Z,5.25
2023-01-29T03:27:08.303Z,5.25
2023-01-29T03:34:19.113Z,5.25
2023-01-29T03:41:26.977Z,5.38
2023-01-29T03:48:41.710Z,5.27
2023-01-29T03:55:44.859Z,5.30
2023-01-29T04:03:13.855Z,5.32
2023-01-29T04:10:18.339Z,5.07
2023-01-29T04:17:23.619Z,5.32
2023-01-29T04:24:34.527Z,5.43
2023-01-29T04:31:47.674Z,5.47
2023-01-29T04:38:49.512Z,5.22
2023-01-29T04:46:32.939Z,5.13
2023-01-29T04:53:37.967Z,5.21
2023-01-29T05:00:44.595Z,5.28
2023-01-29T05:07:46.394Z,5.18
2023-01-29T05:14:48.093Z,5.31
2023-01-29T05:21:49.932Z,5.23
2023-01-29T05:28:51.625Z,5.27
2023-01-29T05:35:53.337Z,5.36
2023-01-29T05:42:54.993Z,5.25
2023-01-29T05:49:56.599Z,5.30
2023-01-29T05:56:58.162Z,5.16
2023-01-29T06:03:59.951Z,5.27
2023-01-29T06:11:01.558Z,5.47
2023-01-29T06:18:03.329Z,5.46
2023-01-29T06:25:05.500Z,5.55
2023-01-29T06:32:07.322Z,5.43
2023-01-29T06:39:09.124Z,5.50
2023-01-29T06:46:10.936Z,5.36
2023-01-29T06:53:12.702Z,5.53
2023-01-29T07:00:15.547Z,5.31
2023-01-29T07:07:17.505Z,5.28
2023-01-29T07:14:19.637Z,5.28
2023-01-29T07:21:21.995Z,5.38
2023-01-29T07:28:23.834Z,5.56
2023-01-29T07:35:25.796Z,5.40
2023-01-29T07:42:27.507Z,5.51
2023-01-29T07:49:29.389Z,5.76
2023-01-29T07:56:31.083Z,5.57
2023-01-29T08:03:32.719Z,5.63
2023-01-29T08:10:37.139Z,5.70
2023-01-29T08:17:52.537Z,5.51
2023-01-29T08:25:06.469Z,5.63
2023-01-29T08:32:11.153Z,5.46
2023-01-29T08:39:12.812Z,5.64
2023-01-29T08:46:14.704Z,5.51
2023-01-29T08:53:16.492Z,5.78
2023-01-29T09:00:18.759Z,5.94
2023-01-29T09:07:21.814Z,6.08
2023-01-29T09:14:23.831Z,5.89
2023-01-29T09:21:25.619Z,5.94
2023-01-29T09:28:27.377Z,5.94
2023-01-29T09:35:29.135Z,6.03
2023-01-29T09:42:41.157Z,5.77
2023-01-29T09:49:47.531Z,6.15
2023-01-29T09:56:49.192Z,6.26
2023-01-29T10:04:14.133Z,6.26
2023-01-29T10:11:34.364Z,6.38
2023-01-29T10:18:42.159Z,6.50
2023-01-29T10:25:45.169Z,6.63
2023-01-29T10:32:46.893Z,6.62
2023-01-29T10:39:48.649Z,6.84
2023-01-29T10:47:05.745Z,6.85
2023-01-29T10:54:07.569Z,7.12
2023-01-29T11:01:10.163Z,7.31
2023-01-29T11:08:17.119Z,7.39
2023-01-29T11:15:21.457Z,7.23
2023-01-29T11:22:30.132Z,7.73
2023-01-29T11:29:33.618Z,7.51
2023-01-29T11:36:38.167Z,7.43
2023-01-29T11:43:39.922Z,7.62
2023-01-29T11:50:41.872Z,7.83
2023-01-29T11:57:44.147Z,7.84
2023-01-29T12:04:45.868Z,7.89
2023-01-29T12:11:47.571Z,7.78
2023-01-29T12:18:52.968Z,8.16
2023-01-29T12:26:16.194Z,7.97
2023-01-29T12:33:36.197Z,7.90
2023-01-29T12:40:44.145Z,8.14
2023-01-29T12:47:52.347Z,8.14
2023-01-29T12:55:16.442Z,7.94
2023-01-29T13:02:31.985Z,7.79
2023-01-29T13:09:33.718Z,7.82
2023-01-29T13:16:38.375Z,7.78
2023-01-29T13:23:43.696Z,7.81
2023-01-29T13:30:45.489Z,7.83
2023-01-29T13:37:52.040Z,8.05
2023-01-29T13:44:55.500Z,8.09
2023-01-29T13:51:58.009Z,7.81
2023-01-29T13:59:00.951Z,7.83
2023-01-29T14:06:05.556Z,7.87
2023-01-29T14:13:21.307Z,7.91
2023-01-29T14:20:45.127Z,7.55
2023-01-29T14:27:50.933Z,7.20
2023-01-29T14:35:30.389Z,7.50
2023-01-29T14:42:37.471Z,7.41
2023-01-29T14:49:54.644Z,7.43
2023-01-29T14:56:59.324Z,7.30
2023-01-29T15:04:04.842Z,7.34
2023-01-29T15:11:34.074Z,7.51
2023-01-29T15:18:45.657Z,7.20
2023-01-29T15:25:48.506Z,7.38
2023-01-29T15:32:50.459Z,7.35
2023-01-29T15:39:53.161Z,7.20
2023-01-29T15:46:59.363Z,7.06
2023-01-29T15:54:06.072Z,7.21
2023-01-29T16:01:08.477Z,7.16
2023-01-29T16:08:15.237Z,6.91
2023-01-29T16:15:36.734Z,7.05
2023-01-29T16:22:47.325Z,6.95
2023-01-29T16:29:51.923Z,6.98
2023-01-29T16:36:54.693Z,7.01
2023-01-29T16:44:05.117Z,7.24
2023-01-29T16:51:13.774Z,7.07
2023-01-29T16:58:16.834Z,7.04
2023-01-29T17:05:27.177Z,7.11
2023-01-29T17:12:29.456Z,7.05
2023-01-29T17:19:31.246Z,7.00
2023-01-29T17:26:35.713Z,6.95
2023-01-29T17:33:39.448Z,7.07
2023-01-29T17:40:54.600Z,7.24
2023-01-29T17:47:56.357Z,7.03
2023-01-29T17:54:57.986Z,7.06
2023-01-29T18:02:00.005Z,6.92
2023-01-29T18:09:02.018Z,7.07
2023-01-29T18:16:03.820Z,6.95
2023-01-29T18:23:06.634Z,6.96
2023-01-29T18:30:09.093Z,7.01
2023-01-29T18:37:12.841Z,6.85
2023-01-29T18:44:14.733Z,7.03
2023-01-29T18:51:16.445Z,6.61
2023-01-29T18:58:26.541Z,6.62
2023-01-29T19:05:35.789Z,6.86
2023-01-29T19:12:38.107Z,6.69
2023-01-29T19:19:39.995Z,6.82
2023-01-29T19:26:41.720Z,6.98
2023-01-29T19:33:43.502Z,6.82
2023-01-29T19:40:45.288Z,6.87
2023-01-29T19:47:47.061Z,6.65
2023-01-29T19:54:48.819Z,6.93
2023-01-29T20:01:50.460Z,6.82
2023-01-29T20:08:52.349Z,6.83
2023-01-29T20:15:54.283Z,6.94
2023-01-29T20:22:56.221Z,6.65
2023-01-29T20:29:57.827Z,6.95
2023-01-29T20:36:59.507Z,6.70
2023-01-29T20:44:01.170Z,6.69
2023-01-29T20:51:04.286Z,6.57
2023-01-29T20:58:06.839Z,6.76
2023-01-29T21:05:08.909Z,6.82
2023-01-29T21:12:10.558Z,6.79
2023-01-29T21:19:13.707Z,6.90
2023-01-29T21:26:15.382Z,6.83
2023-01-29T21:33:17.172Z,6.64
2023-01-29T21:40:20.043Z,6.87
2023-01-29T21:47:22.315Z,6.69
2023-01-29T21:54:31.218Z,6.69
2023-01-29T22:01:37.830Z,6.65
2023-01-29T22:08:40.221Z,6.54
2023-01-29T22:15:41.891Z,6.75
2023-01-29T22:22:43.880Z,6.53
2023-01-29T22:29:45.530Z,6.49
2023-01-29T22:36:47.135Z,6.60
2023-01-29T22:43:48.820Z,6.58
2023-01-29T22:51:10.893Z,6.57
2023-01-29T22:58:12.559Z,6.60
2023-01-29T23:05:14.387Z,6.53
2023-01-29T23:12:16.049Z,6.56
2023-01-29T23:19:17.729Z,6.41
2023-01-29T23:26:38.006Z,6.43
2023-01-29T23:33:39.633Z,6.11
2023-01-29T23:40:41.277Z,6.56
2023-01-29T23:47:42.908Z,6.48
2023-01-29T23:54:44.482Z,6.29
